createdAt,value
2023-04-23T00:00:12.137Z,48.05
2023-04-23T00:02:44.478Z,48.63
2023-04-23T00:05:14.008Z,48.51
2023-04-23T00:07:43.045Z,48.62
2023-04-23T00:10:11.908Z,48.65
2023-04-23T00:12:42.645Z,49.13
2023-04-23T00:15:12.042Z,49.18
2023-04-23T00:17:40.882Z,49.45
2023-04-23T00:20:10.495Z,49.51
2023-04-23T00:22:38.380Z,49.57
2023-04-23T00:25:06.838Z,49.40
2023-04-23T00:27:34.810Z,49.46
2023-04-23T00:30:04.408Z,49.68
2023-04-23T00:32:34.546Z,49.73
2023-04-23T00:35:02.423Z,49.47
2023-04-23T00:37:31.572Z,49.56
2023-04-23T00:39:59.576Z,49.31
2023-04-23T00:42:28.140Z,49.88
2023-04-23T00:44:56.986Z,49.69
2023-04-23T00:47:26.475Z,49.69
2023-04-23T00:49:55.593Z,49.57
2023-04-23T00:52:23.503Z,49.53
2023-04-23T00:54:52.038Z,50.04
2023-04-23T00:57:20.034Z,49.83
2023-04-23T00:59:48.103Z,49.63
2023-04-23T01:02:16.700Z,50.26
2023-04-23T01:04:46.381Z,49.85
2023-04-23T01:07:14.157Z,49.72
2023-04-23T01:09:44.787Z,49.58
2023-04-23T01:12:12.925Z,49.99
2023-04-23T01:14:41.595Z,50.42
2023-04-23T01:17:09.891Z,50.35
2023-04-23T01:19:38.296Z,50.51
2023-04-23T01:22:11.129Z,50.80
2023-04-23T01:24:39.507Z,50.62
2023-04-23T01:27:07.568Z,51.08
2023-04-23T01:29:35.705Z,51.36
2023-04-23T01:32:04.210Z,51.56
2023-04-23T01:34:32.995Z,51.43
2023-04-23T01:37:01.377Z,51.40
2023-04-23T01:39:30.587Z,51.89
2023-04-23T01:41:58.579Z,51.89
2023-04-23T01:44:26.852Z,51.98
2023-04-23T01:46:54.938Z,52.13
2023-04-23T01:49:22.806Z,52.04
2023-04-23T01:51:50.700Z,52.10
2023-04-23T01:54:18.517Z,52.60
2023-04-23T01:56:47.711Z,52.64
2023-04-23T01:59:15.783Z,52.96
2023-04-23T02:01:45.170Z,53.11
2023-04-23T02:04:16.087Z,52.69
2023-04-23T02:06:46.971Z,53.80
2023-04-23T02:09:15.229Z,53.51
2023-04-23T02:11:43.238Z,53.21
2023-04-23T02:14:12.473Z,53.57
2023-04-23T02:16:41.512Z,55.23
2023-04-23T02:19:09.504Z,56.39
2023-04-23T02:21:37.463Z,67.00
2023-04-23T02:24:06.075Z,68.23
2023-04-23T02:26:33.960Z,68.56
2023-04-23T02:29:01.850Z,69.42
2023-04-23T02:31:31.262Z,74.04
2023-04-23T02:33:59.135Z,77.07
2023-04-23T02:36:28.674Z,76.80
2023-04-23T02:38:56.503Z,75.89
2023-04-23T02:41:24.317Z,75.32
2023-04-23T02:43:52.108Z,77.57
2023-04-23T02:46:19.934Z,79.92
2023-04-23T02:48:49.223Z,80.06
2023-04-23T02:51:18.087Z,77.77
2023-04-23T02:53:46.224Z,77.07
2023-04-23T02:56:14.158Z,79.61
2023-04-23T02:58:42.015Z,79.47
2023-04-23T03:01:09.946Z,78.74
2023-04-23T03:03:38.270Z,78.92
2023-04-23T03:06:08.657Z,81.35
2023-04-23T03:08:36.680Z,81.79
2023-04-23T03:11:04.565Z,81.36
2023-04-23T03:13:32.552Z,81.80
2023-04-23T03:16:00.724Z,80.92
2023-04-23T03:18:28.622Z,81.05
2023-04-23T03:20:57.622Z,80.59
2023-04-23T03:23:27.199Z,79.97
2023-04-23T03:25:55.018Z,80.27
2023-04-23T03:28:22.888Z,81.17
2023-04-23T03:30:50.782Z,81.06
2023-04-23T03:33:18.655Z,81.34
2023-04-23T03:35:46.651Z,80.80
2023-04-23T03:38:18.944Z,80.97
2023-04-23T03:40:48.386Z,82.86
2023-04-23T03:43:16.290Z,82.99
2023-04-23T03:46:02.790Z,82.52
2023-04-23T03:48:33.840Z,81.62
2023-04-23T03:51:05.861Z,82.50
2023-04-23T03:53:38.653Z,81.87
2023-04-23T03:56:30.474Z,81.44
2023-04-23T03:59:17.494Z,82.70
2023-04-23T04:01:48.525Z,82.10
2023-04-23T04:04:16.692Z,82.68
2023-04-23T04:06:44.756Z,83.03
2023-04-23T04:09:12.573Z,83.87
2023-04-23T04:11:42.090Z,83.91
2023-04-23T04:14:10.350Z,83.33
2023-04-23T04:16:38.258Z,81.88
2023-04-23T04:19:06.508Z,82.24
2023-04-23T04:21:34.463Z,82.26
2023-04-23T04:24:02.747Z,81.45
2023-04-23T04:26:32.357Z,81.02
2023-04-23T04:29:02.049Z,81.11
2023-04-23T04:31:31.010Z,79.87
2023-04-23T04:33:59.160Z,78.76
2023-04-23T04:36:27.122Z,78.94
2023-04-23T04:38:56.068Z,80.22
2023-04-23T04:41:25.556Z,80.70
2023-04-23T04:43:53.476Z,82.04
2023-04-23T04:46:22.706Z,82.63
2023-04-23T04:48:52.785Z,82.54
2023-04-23T04:51:20.916Z,82.03
2023-04-23T04:53:48.728Z,81.92
2023-04-23T04:56:16.658Z,82.21
2023-04-23T04:58:44.481Z,80.79
2023-04-23T05:01:13.381Z,80.54
2023-04-23T05:03:42.805Z,81.82
2023-04-23T05:06:10.858Z,81.60
2023-04-23T05:08:38.778Z,80.87
2023-04-23T05:11:06.683Z,81.15
2023-04-23T05:13:34.566Z,81.28
2023-04-23T05:16:02.484Z,81.22
2023-04-23T05:18:30.487Z,80.74
2023-04-23T05:20:59.715Z,80.61
2023-04-23T05:23:27.617Z,79.72
2023-04-23T05:25:56.910Z,80.17
2023-04-23T05:28:24.783Z,79.95
2023-04-23T05:30:53.049Z,79.67
2023-04-23T05:33:20.908Z,79.67
2023-04-23T05:35:48.782Z,78.97
2023-04-23T05:38:18.084Z,79.48
2023-04-23T05:40:45.970Z,79.38
2023-04-23T05:43:13.982Z,79.32
2023-04-23T05:45:42.071Z,79.25
2023-04-23T05:48:09.993Z,79.03
2023-04-23T05:50:37.904Z,79.00
2023-04-23T05:53:07.940Z,77.96
2023-04-23T05:55:37.131Z,78.68
2023-04-23T05:58:05.108Z,77.50
2023-04-23T06:00:35.282Z,77.56
2023-04-23T06:03:03.276Z,76.52
2023-04-23T06:05:31.241Z,76.73
2023-04-23T06:07:59.102Z,75.91
2023-04-23T06:10:26.934Z,77.00
2023-04-23T06:12:56.216Z,77.63
2023-04-23T06:15:26.944Z,76.82
2023-04-23T06:17:54.943Z,76.73
2023-04-23T06:20:23.052Z,76.98
2023-04-23T06:22:50.937Z,77.22
2023-04-23T06:25:18.721Z,76.55
2023-04-23T06:27:46.549Z,77.57
2023-04-23T06:30:22.080Z,77.32
2023-04-23T06:32:51.247Z,77.85
2023-04-23T06:35:19.153Z,77.81
2023-04-23T06:37:46.957Z,77.83
2023-04-23T06:40:15.483Z,76.11
2023-04-23T06:42:43.330Z,76.13
2023-04-23T06:45:17.953Z,76.88
2023-04-23T06:47:49.173Z,76.76
2023-04-23T06:50:17.115Z,76.82
2023-04-23T06:52:45.075Z,76.30
2023-04-23T06:55:13.571Z,75.95
2023-04-23T06:57:41.531Z,76.14
2023-04-23T07:00:11.694Z,75.10
2023-04-23T07:02:42.622Z,75.13
2023-04-23T07:05:12.106Z,75.45
2023-04-23T07:07:40.693Z,76.59
2023-04-23T07:10:10.023Z,78.23
2023-04-23T07:12:38.229Z,79.32
2023-04-23T07:15:07.549Z,80.89
2023-04-23T07:17:36.002Z,82.17
2023-04-23T07:20:06.408Z,82.63
2023-04-23T07:22:35.922Z,83.72
2023-04-23T07:25:05.295Z,85.75
2023-04-23T07:27:33.246Z,86.84
2023-04-23T07:30:01.993Z,89.08
2023-04-23T07:32:30.169Z,90.40
2023-04-23T07:34:58.255Z,91.91
2023-04-23T07:37:26.341Z,93.01
2023-04-23T07:39:55.540Z,93.63
2023-04-23T07:42:23.539Z,93.65
2023-04-23T07:44:51.386Z,95.00
2023-04-23T07:47:19.399Z,95.21
2023-04-23T07:49:47.337Z,95.71
2023-04-23T07:52:15.543Z,96.94
2023-04-23T07:54:43.486Z,96.79
2023-04-23T07:57:12.869Z,96.89
2023-04-23T07:59:41.309Z,96.73
2023-04-23T08:02:09.718Z,97.16
2023-04-23T08:04:37.959Z,96.75
2023-04-23T08:07:05.982Z,96.33
2023-04-23T08:09:33.845Z,96.50
2023-04-23T08:12:02.179Z,96.48
2023-04-23T08:14:31.442Z,96.49
2023-04-23T08:17:00.145Z,96.40
2023-04-23T08:19:31.706Z,96.10
2023-04-23T08:21:59.622Z,95.89
2023-04-23T08:24:27.508Z,96.54
2023-04-23T08:26:55.528Z,95.55
2023-04-23T08:29:23.353Z,96.35
2023-04-23T08:31:52.565Z,96.63
2023-04-23T08:34:21.565Z,96.03
2023-04-23T08:36:49.500Z,95.18
2023-04-23T08:39:17.426Z,95.66
2023-04-23T08:41:46.995Z,93.66
2023-04-23T08:44:18.869Z,93.53
2023-04-23T08:46:50.438Z,93.48
2023-04-23T08:49:20.056Z,92.21
2023-04-23T08:51:50.629Z,91.86
2023-04-23T08:54:23.242Z,89.26
2023-04-23T08:56:52.382Z,89.63
2023-04-23T08:59:23.001Z,87.23
2023-04-23T09:01:51.141Z,85.96
2023-04-23T09:04:20.464Z,85.74
2023-04-23T09:06:50.457Z,83.99
2023-04-23T09:09:18.566Z,85.50
2023-04-23T09:11:46.487Z,86.70
2023-04-23T09:14:15.008Z,86.91
2023-04-23T09:16:42.963Z,87.06
2023-04-23T09:19:12.263Z,87.93
2023-04-23T09:21:41.961Z,88.36
2023-04-23T09:24:12.535Z,87.64
2023-04-23T09:26:46.715Z,87.63
2023-04-23T09:29:18.411Z,88.18
2023-04-23T09:31:47.714Z,90.20
2023-04-23T09:34:18.077Z,90.20
2023-04-23T09:36:50.238Z,90.01
2023-04-23T09:39:19.337Z,90.12
2023-04-23T09:41:47.269Z,91.60
2023-04-23T09:44:19.104Z,92.53
2023-04-23T09:46:46.960Z,93.28
2023-04-23T09:49:16.200Z,92.47
2023-04-23T09:51:46.578Z,91.54
2023-04-23T09:54:16.675Z,92.00
2023-04-23T09:56:44.793Z,89.49
2023-04-23T09:59:35.446Z,88.54
2023-04-23T10:02:05.395Z,87.60
2023-04-23T10:04:33.945Z,88.44
2023-04-23T10:09:36.740Z,88.22
2023-04-23T10:12:05.058Z,89.91
2023-04-23T10:14:33.168Z,88.68
2023-04-23T10:17:02.152Z,87.29
2023-04-23T10:19:30.574Z,87.97
2023-04-23T10:22:17.773Z,88.72
2023-04-23T10:24:55.166Z,88.01
2023-04-23T10:27:33.358Z,87.73
2023-04-23T10:30:09.086Z,87.68
2023-04-23T10:32:38.015Z,86.48
2023-04-23T10:35:07.329Z,86.65
2023-04-23T10:37:35.863Z,86.38
2023-04-23T10:40:11.450Z,85.25
2023-04-23T10:42:40.535Z,85.38
2023-04-23T10:45:23.486Z,84.31
2023-04-23T10:47:54.343Z,84.08
2023-04-23T10:50:26.755Z,81.57
2023-04-23T10:52:56.844Z,79.78
2023-04-23T10:55:27.221Z,78.08
2023-04-23T10:58:05.773Z,77.58
2023-04-23T11:00:45.628Z,75.37
2023-04-23T11:03:33.645Z,75.80
2023-04-23T11:06:04.735Z,73.48
2023-04-23T11:08:33.328Z,73.54
2023-04-23T11:11:03.780Z,73.61
2023-04-23T11:13:31.580Z,73.23
2023-04-23T11:16:16.355Z,72.53
2023-04-23T11:19:02.908Z,73.90
2023-04-23T11:21:57.012Z,72.91
2023-04-23T11:24:24.945Z,73.59
2023-04-23T11:26:54.606Z,70.44
2023-04-23T11:29:23.822Z,70.53
2023-04-23T11:32:01.715Z,70.79
2023-04-23T11:34:31.445Z,69.85
2023-04-23T11:37:00.309Z,68.11
2023-04-23T11:39:28.338Z,67.27
2023-04-23T11:42:02.991Z,67.26
2023-04-23T11:44:31.583Z,65.18
2023-04-23T11:47:01.839Z,65.09
2023-04-23T11:49:29.755Z,65.24
2023-04-23T11:52:00.388Z,65.32
2023-04-23T11:54:29.438Z,66.05
2023-04-23T11:56:59.760Z,64.31
2023-04-23T11:59:27.751Z,62.44
2023-04-23T12:01:57.131Z,62.45
2023-04-23T12:04:26.024Z,61.54
2023-04-23T12:06:54.950Z,59.49
2023-04-23T12:09:23.911Z,58.37
2023-04-23T12:11:52.036Z,58.03
2023-04-23T12:14:26.925Z,56.99
2023-04-23T12:16:54.802Z,56.07
2023-04-23T12:19:27.531Z,56.76
2023-04-23T12:21:57.108Z,56.25
2023-04-23T12:24:26.421Z,56.77
2023-04-23T12:26:55.934Z,59.49
2023-04-23T12:29:26.068Z,57.75
2023-04-23T12:31:54.852Z,55.09
2023-04-23T12:34:22.802Z,56.03
2023-04-23T12:36:51.707Z,57.23
2023-04-23T12:39:25.196Z,56.54
2023-04-23T12:41:54.356Z,53.34
2023-04-23T12:44:22.538Z,50.20
2023-04-23T12:46:59.531Z,49.41
2023-04-23T12:49:28.088Z,49.67
2023-04-23T12:52:00.758Z,47.74
2023-04-23T12:54:31.149Z,47.04
2023-04-23T12:56:59.502Z,45.89
2023-04-23T12:59:27.601Z,47.21
2023-04-23T13:01:55.631Z,44.24
2023-04-23T13:04:24.834Z,44.33
2023-04-23T13:06:52.818Z,45.53
2023-04-23T13:09:21.793Z,46.70
2023-04-23T13:11:49.867Z,46.11
2023-04-23T13:14:17.983Z,46.09
2023-04-23T13:16:46.019Z,46.14
2023-04-23T13:19:16.169Z,46.15
2023-04-23T13:21:45.451Z,45.53
2023-04-23T13:24:13.386Z,45.86
2023-04-23T13:26:41.243Z,46.44
2023-04-23T13:29:09.122Z,47.11
2023-04-23T13:31:36.967Z,47.14
2023-04-23T13:34:04.783Z,46.42
2023-04-23T13:36:32.774Z,46.23
2023-04-23T13:39:02.010Z,45.08
2023-04-23T13:41:30.157Z,45.41
2023-04-23T13:43:58.029Z,45.18
2023-04-23T13:46:26.157Z,45.24
2023-04-23T13:48:54.690Z,45.49
2023-04-23T13:51:33.990Z,46.95
2023-04-23T13:54:05.132Z,45.29
2023-04-23T13:56:33.296Z,46.90
2023-04-23T13:59:17.459Z,46.16
2023-04-23T14:01:49.622Z,47.19
2023-04-23T14:04:18.225Z,47.23
2023-04-23T14:06:46.197Z,48.79
2023-04-23T14:09:15.388Z,47.91
2023-04-23T14:11:43.179Z,44.98
2023-04-23T14:14:11.059Z,43.79
2023-04-23T14:16:38.987Z,44.65
2023-04-23T14:19:07.374Z,45.40
2023-04-23T14:21:36.378Z,45.70
2023-04-23T14:24:10.504Z,45.37
2023-04-23T14:26:48.903Z,45.02
2023-04-23T14:29:26.134Z,44.52
2023-04-23T14:31:54.130Z,44.43
2023-04-23T14:34:22.238Z,44.79
2023-04-23T14:36:50.430Z,44.70
2023-04-23T14:39:18.289Z,43.89
2023-04-23T14:41:47.448Z,43.30
2023-04-23T14:44:15.301Z,43.78
2023-04-23T14:46:43.224Z,43.88
2023-04-23T14:49:11.749Z,42.86
2023-04-23T14:51:39.671Z,42.70
2023-04-23T14:54:07.451Z,42.75
2023-04-23T14:56:35.296Z,42.59
2023-04-23T14:59:04.724Z,41.82
2023-04-23T15:01:32.717Z,42.26
2023-04-23T15:04:00.672Z,42.42
2023-04-23T15:06:28.625Z,43.13
2023-04-23T15:08:56.430Z,43.54
2023-04-23T15:11:24.285Z,43.30
2023-04-23T15:13:57.707Z,42.91
2023-04-23T15:16:46.089Z,40.85
2023-04-23T15:19:17.748Z,41.11
2023-04-23T15:21:46.085Z,40.53
2023-04-23T15:24:13.990Z,40.83
2023-04-23T15:26:41.990Z,40.46
2023-04-23T15:29:10.203Z,41.07
2023-04-23T15:31:39.778Z,41.32
2023-04-23T15:34:09.001Z,41.90
2023-04-23T15:36:38.093Z,40.92
2023-04-23T15:39:06.951Z,40.76
2023-04-23T15:41:37.492Z,40.63
2023-04-23T15:44:10.670Z,40.12
2023-04-23T15:46:39.940Z,41.36
2023-04-23T15:49:07.802Z,40.65
2023-04-23T15:51:35.583Z,40.95
2023-04-23T15:54:05.834Z,41.84
2023-04-23T15:56:33.704Z,42.37
2023-04-23T15:59:01.571Z,43.31
2023-04-23T16:01:29.467Z,43.19
2023-04-23T16:06:29.574Z,43.76
2023-04-23T16:08:57.458Z,44.19
2023-04-23T16:11:27.541Z,44.32
2023-04-23T16:13:56.907Z,45.39
2023-04-23T16:16:24.861Z,46.45
2023-04-23T16:18:53.262Z,46.31
2023-04-23T16:21:22.683Z,46.84
2023-04-23T16:23:50.496Z,47.84
2023-04-23T16:26:18.432Z,48.07
2023-04-23T16:28:51.876Z,47.50
2023-04-23T16:31:28.934Z,47.48
2023-04-23T16:33:57.327Z,46.25
2023-04-23T16:36:26.667Z,46.63
2023-04-23T16:38:54.590Z,46.59
2023-04-23T16:41:22.407Z,46.48
2023-04-23T16:43:50.224Z,46.73
2023-04-23T16:46:18.135Z,46.48
2023-04-23T16:48:46.401Z,46.20
2023-04-23T16:51:14.325Z,47.60
2023-04-23T16:53:43.550Z,48.30
2023-04-23T16:56:11.465Z,48.73
2023-04-23T16:58:39.414Z,48.77
2023-04-23T17:01:07.406Z,49.48
2023-04-23T17:03:36.561Z,50.28
2023-04-23T17:06:11.954Z,50.46
2023-04-23T17:08:40.258Z,50.89
2023-04-23T17:11:09.530Z,51.13
2023-04-23T17:13:37.444Z,51.42
2023-04-23T17:16:05.313Z,51.45
2023-04-23T17:18:33.230Z,51.80
2023-04-23T17:21:01.236Z,52.47
2023-04-23T17:23:29.079Z,52.60
2023-04-23T17:25:56.952Z,52.13
2023-04-23T17:28:26.293Z,52.13
2023-04-23T17:30:55.752Z,52.18
2023-04-23T17:33:23.859Z,52.99
2023-04-23T17:35:53.114Z,52.70
2023-04-23T17:38:21.472Z,52.83
2023-04-23T17:40:49.819Z,52.93
2023-04-23T17:43:17.831Z,52.77
2023-04-23T17:45:47.566Z,52.27
2023-04-23T17:48:16.058Z,52.93
2023-04-23T17:50:44.609Z,52.79
2023-04-23T17:53:12.696Z,53.01
2023-04-23T17:55:40.524Z,53.49
2023-04-23T17:58:09.371Z,53.91
2023-04-23T18:00:37.857Z,54.81
2023-04-23T18:03:08.612Z,55.63
2023-04-23T18:05:36.914Z,56.06
2023-04-23T18:08:06.815Z,56.26
2023-04-23T18:10:34.784Z,56.35
2023-04-23T18:13:02.942Z,56.33
2023-04-23T18:15:32.186Z,56.95
2023-04-23T18:18:00.371Z,57.34
2023-04-23T18:20:30.271Z,57.87
2023-04-23T18:22:58.488Z,57.97
2023-04-23T18:25:26.790Z,57.99
2023-04-23T18:27:54.673Z,58.05
2023-04-23T18:30:23.537Z,58.26
2023-04-23T18:32:57.112Z,58.79
2023-04-23T18:35:25.396Z,58.77
2023-04-23T18:37:56.338Z,59.34
2023-04-23T18:40:24.319Z,59.67
2023-04-23T18:42:52.352Z,59.81
2023-04-23T18:45:20.280Z,60.09
2023-04-23T18:47:51.744Z,60.48
2023-04-23T18:50:43.384Z,60.75
2023-04-23T18:53:12.719Z,61.25
2023-04-23T18:55:40.537Z,61.53
2023-04-23T18:58:08.447Z,61.26
2023-04-23T19:00:36.319Z,61.74
2023-04-23T19:03:09.126Z,61.45
2023-04-23T19:05:40.436Z,61.69
2023-04-23T19:08:08.374Z,62.35
2023-04-23T19:10:39.249Z,62.48
2023-04-23T19:13:07.267Z,62.50
2023-04-23T19:15:36.120Z,62.99
2023-04-23T19:18:06.067Z,63.44
2023-04-23T19:20:34.234Z,63.00
2023-04-23T19:23:04.765Z,62.89
2023-04-23T19:25:34.678Z,62.82
2023-04-23T19:28:03.947Z,63.29
2023-04-23T19:30:32.339Z,63.78
2023-04-23T19:33:00.331Z,63.18
2023-04-23T19:35:28.359Z,63.00
2023-04-23T19:37:56.290Z,63.65
2023-04-23T19:40:24.142Z,63.97
2023-04-23T19:42:53.232Z,63.80
2023-04-23T19:45:22.921Z,64.82
2023-04-23T19:47:50.805Z,65.36
2023-04-23T19:50:19.710Z,64.94
2023-04-23T19:52:47.597Z,64.92
2023-04-23T19:55:15.734Z,64.88
2023-04-23T19:57:43.555Z,64.97
2023-04-23T20:00:14.097Z,64.90
2023-04-23T20:02:45.950Z,64.90
2023-04-23T20:05:14.263Z,64.83
2023-04-23T20:07:42.089Z,64.20
2023-04-23T20:10:10.762Z,64.16
2023-04-23T20:12:39.670Z,64.25
2023-04-23T20:15:08.724Z,64.16
2023-04-23T20:17:36.867Z,64.15
2023-04-23T20:20:07.406Z,64.18
2023-04-23T20:22:35.319Z,64.57
2023-04-23T20:25:03.361Z,64.61
2023-04-23T20:27:34.010Z,64.52
2023-04-23T20:30:01.839Z,64.32
2023-04-23T20:32:29.843Z,64.14
2023-04-23T20:34:58.899Z,64.70
2023-04-23T20:37:28.432Z,65.14
2023-04-23T20:39:58.325Z,64.82
2023-04-23T20:42:33.084Z,64.81
2023-04-23T20:45:01.546Z,64.92
2023-04-23T20:47:29.660Z,65.06
2023-04-23T20:49:57.639Z,65.18
2023-04-23T20:52:25.510Z,65.25
2023-04-23T20:54:54.793Z,65.32
2023-04-23T20:57:22.623Z,65.51
2023-04-23T20:59:50.605Z,65.78
2023-04-23T21:02:18.537Z,65.37
2023-04-23T21:04:46.417Z,65.58
2023-04-23T21:07:14.240Z,65.58
2023-04-23T21:09:42.291Z,65.55
2023-04-23T21:12:11.789Z,65.54
2023-04-23T21:14:39.702Z,65.69
2023-04-23T21:17:07.543Z,65.01
2023-04-23T21:19:35.359Z,65.58
2023-04-23T21:22:03.542Z,66.28
2023-04-23T21:24:31.362Z,66.03
2023-04-23T21:26:59.196Z,66.19
2023-04-23T21:30:06.930Z,66.80
2023-04-23T21:32:34.795Z,66.44
2023-04-23T21:35:02.640Z,66.56
2023-04-23T21:37:31.184Z,66.62
2023-04-23T21:39:59.019Z,67.18
2023-04-23T21:42:26.860Z,67.64
2023-04-23T21:44:56.183Z,67.90
2023-04-23T21:47:24.210Z,67.86
2023-04-23T21:49:52.419Z,67.79
2023-04-23T21:52:20.501Z,68.39
2023-04-23T21:54:48.440Z,68.46
2023-04-23T21:57:16.500Z,68.59
2023-04-23T21:59:44.671Z,68.76
2023-04-23T22:02:14.151Z,69.39
2023-04-23T22:04:42.037Z,70.28
2023-04-23T22:07:12.460Z,71.20
2023-04-23T22:09:41.430Z,71.49
2023-04-23T22:12:09.656Z,72.08
2023-04-23T22:14:39.213Z,72.16
2023-04-23T22:17:07.447Z,72.46
2023-04-23T22:19:36.851Z,73.58
2023-04-23T22:22:05.925Z,73.43
2023-04-23T22:24:33.777Z,73.50
2023-04-23T22:27:01.932Z,73.71
2023-04-23T22:29:30.106Z,74.39
2023-04-23T22:31:58.050Z,74.65
2023-04-23T22:34:25.948Z,74.98
2023-04-23T22:36:55.231Z,75.06
2023-04-23T22:39:23.132Z,74.88
2023-04-23T22:41:51.072Z,74.82
2023-04-23T22:44:18.954Z,75.45
2023-04-23T22:46:46.866Z,75.31
2023-04-23T22:49:14.864Z,75.06
2023-04-23T22:51:43.731Z,75.34
2023-04-23T22:54:13.046Z,75.75
2023-04-23T22:56:41.033Z,74.92
2023-04-23T22:59:09.557Z,75.51
2023-04-23T23:01:37.445Z,75.35
2023-04-23T23:04:05.444Z,75.89
2023-04-23T23:06:33.517Z,75.44
2023-04-23T23:09:01.306Z,75.81
2023-04-23T23:11:30.598Z,75.96
2023-04-23T23:13:58.506Z,75.86
2023-04-23T23:16:26.492Z,76.34
2023-04-23T23:18:54.553Z,76.04
2023-04-23T23:21:22.464Z,76.06
2023-04-23T23:23:50.722Z,75.83
2023-04-23T23:26:18.640Z,76.30
2023-04-23T23:28:47.896Z,76.79
2023-04-23T23:31:15.752Z,76.56
2023-04-23T23:33:43.725Z,76.04
2023-04-23T23:36:11.926Z,76.30
2023-04-23T23:38:39.744Z,76.65
2023-04-23T23:41:07.600Z,76.87
2023-04-23T23:43:35.804Z,76.58
2023-04-23T23:46:05.051Z,76.90
2023-04-23T23:48:32.913Z,77.24
2023-04-23T23:51:00.828Z,77.73
2023-04-23T23:53:28.672Z,77.99
2023-04-23T23:55:56.528Z,78.36
2023-04-23T23:58:24.389Z,78.29
